Peyton, Colorado
Current Conditions -  °F | °C
As of 9:13 AM on Saturday 25 Oct 2014 (Local Time) from KFLY Reporting Station
Clear Clear  
Wind Chill: 66°   Ceiling: Unl
Heat Index: 66°   Visibility: 10mi
Dew Point: 15°   Wind: 7mph
Humidity: 14%   Direction: 360°N
Pressure: 30.35"   Gusts: NA
Location:  39.03°N, 104.48°W
Report Text: KFLY 251513Z AUTO 36006KT 10SM CLR 19/M10 A3035 RMK AO2 T01901096
Loading
Personal Weather Stations






























Interactive Weather Map
Tropical Storm Tracking
New forecast layout! Learn more

10-Day Weather Forecast

Advertisements
Track Severe Weather on mobile